createdAt,value
2018-03-17T00:02:12.468Z,0.80
2018-03-17T00:04:40.052Z,0.80
2018-03-17T00:07:07.663Z,0.80
2018-03-17T00:09:35.286Z,0.80
2018-03-17T00:12:03.374Z,0.70
2018-03-17T00:14:30.988Z,0.60
2018-03-17T00:16:58.615Z,0.60
2018-03-17T00:19:26.219Z,0.50
2018-03-17T00:21:53.880Z,0.50
2018-03-17T00:24:21.455Z,0.60
2018-03-17T00:26:49.022Z,0.60
2018-03-17T00:29:16.664Z,0.60
2018-03-17T00:31:44.263Z,0.70
2018-03-17T00:34:12.638Z,0.70
2018-03-17T00:36:40.283Z,0.70
2018-03-17T00:39:07.888Z,0.60
2018-03-17T00:41:35.504Z,0.50
2018-03-17T00:44:03.111Z,0.50
2018-03-17T00:46:30.760Z,0.50
2018-03-17T00:48:58.363Z,0.40
2018-03-17T00:51:25.964Z,0.20
2018-03-17T00:53:58.403Z,0.10
2018-03-17T00:56:26.007Z,0.00
2018-03-17T00:58:53.609Z,0.00
2018-03-17T01:01:21.224Z,-0.10
2018-03-17T01:03:48.824Z,-0.20
2018-03-17T01:06:16.419Z,-0.20
2018-03-17T01:08:44.052Z,-0.20
2018-03-17T01:11:11.625Z,-0.20
2018-03-17T01:13:39.190Z,-0.20
2018-03-17T01:16:06.806Z,-0.20
2018-03-17T01:18:34.453Z,-0.30
2018-03-17T01:21:02.012Z,-0.40
2018-03-17T01:23:29.661Z,-0.40
2018-03-17T01:25:57.312Z,-0.30
2018-03-17T01:28:25.647Z,0.00
2018-03-17T01:30:53.248Z,-0.10
2018-03-17T01:33:21.611Z,0.00
2018-03-17T01:35:49.231Z,0.10
2018-03-17T01:38:17.413Z,0.10
2018-03-17T01:40:45.865Z,0.10
2018-03-17T01:43:13.489Z,0.00
2018-03-17T01:45:41.109Z,0.10
2018-03-17T01:48:08.708Z,0.10
2018-03-17T01:50:36.329Z,0.00
2018-03-17T01:53:03.948Z,-0.10
2018-03-17T01:55:32.344Z,-0.20
2018-03-17T01:57:59.962Z,-0.20
2018-03-17T02:00:27.835Z,-0.20
2018-03-17T02:02:55.420Z,-0.10
2018-03-17T02:05:23.066Z,-0.20
2018-03-17T02:07:53.413Z,-0.30
2018-03-17T02:10:21.823Z,-0.30
2018-03-17T02:12:49.458Z,-0.40
2018-03-17T02:15:17.077Z,-0.30
2018-03-17T02:17:44.691Z,-0.30
2018-03-17T02:20:12.275Z,-0.20
2018-03-17T02:22:39.863Z,-0.20
2018-03-17T02:25:07.487Z,-0.20
2018-03-17T02:27:35.115Z,-0.10
2018-03-17T02:30:04.267Z,-0.20
2018-03-17T02:32:31.884Z,-0.20
2018-03-17T02:34:59.505Z,-0.20
2018-03-17T02:37:27.156Z,-0.20
2018-03-17T02:39:54.739Z,-0.30
2018-03-17T02:42:23.080Z,-0.30
2018-03-17T02:44:50.697Z,-0.30
2018-03-17T02:47:18.297Z,-0.30
2018-03-17T02:49:45.931Z,-0.30
2018-03-17T02:52:13.537Z,-0.20
2018-03-17T02:54:41.180Z,-0.20
2018-03-17T02:57:08.814Z,-0.20
2018-03-17T02:59:36.442Z,-0.20
2018-03-17T03:02:04.822Z,-0.30
2018-03-17T03:04:33.227Z,-0.30
2018-03-17T03:07:00.806Z,-0.30
2018-03-17T03:09:28.468Z,-0.30
2018-03-17T03:11:56.076Z,-0.30
2018-03-17T03:14:23.656Z,-0.30
2018-03-17T03:16:51.292Z,-0.20
2018-03-17T03:19:18.879Z,-0.20
2018-03-17T03:21:46.517Z,-0.20
2018-03-17T03:24:14.100Z,-0.20
2018-03-17T03:26:41.696Z,-0.20
2018-03-17T03:29:09.335Z,-0.10
2018-03-17T03:31:36.889Z,-0.10
2018-03-17T03:34:04.533Z,-0.10
2018-03-17T03:36:32.907Z,-0.20
2018-03-17T03:39:02.236Z,-0.20
2018-03-17T03:41:29.845Z,-0.30
2018-03-17T03:43:57.422Z,-0.30
2018-03-17T03:46:25.078Z,-0.40
2018-03-17T03:48:53.488Z,-0.40
2018-03-17T03:51:21.123Z,-0.50
2018-03-17T03:53:48.747Z,-0.40
2018-03-17T03:56:16.344Z,-0.40
2018-03-17T03:58:43.914Z,-0.40
2018-03-17T04:01:12.255Z,-0.40
2018-03-17T04:03:39.867Z,-0.40
2018-03-17T04:06:07.449Z,-0.40
2018-03-17T04:08:35.114Z,-0.40
2018-03-17T04:11:02.772Z,-0.40
2018-03-17T04:13:30.404Z,-0.50
2018-03-17T04:15:58.776Z,-0.30
2018-03-17T04:18:27.148Z,-0.30
2018-03-17T04:20:55.539Z,-0.40
2018-03-17T04:23:23.944Z,-0.40
2018-03-17T04:25:51.538Z,-0.40
2018-03-17T04:28:19.151Z,-0.20
2018-03-17T04:30:46.763Z,-0.10
2018-03-17T04:33:14.344Z,0.10
2018-03-17T04:35:42.736Z,0.40
2018-03-17T04:38:11.083Z,0.60
2018-03-17T04:40:38.682Z,0.60
2018-03-17T04:43:06.298Z,0.70
2018-03-17T04:45:33.869Z,0.90
2018-03-17T04:48:02.479Z,1.00
2018-03-17T04:50:30.827Z,1.10
2018-03-17T04:52:58.441Z,1.10
2018-03-17T04:55:26.038Z,1.10
2018-03-17T04:57:53.715Z,1.20
2018-03-17T05:00:21.312Z,1.20
2018-03-17T05:02:48.897Z,1.10
2018-03-17T05:05:16.473Z,1.10
2018-03-17T05:07:44.064Z,1.00
2018-03-17T05:10:12.420Z,1.00
2018-03-17T05:12:40.029Z,0.90
2018-03-17T05:15:07.714Z,1.00
2018-03-17T05:17:35.331Z,1.10
2018-03-17T05:20:03.698Z,1.10
2018-03-17T05:22:31.284Z,1.20
2018-03-17T05:25:00.093Z,1.20
2018-03-17T05:27:27.688Z,1.30
2018-03-17T05:29:55.300Z,1.40
2018-03-17T05:32:22.862Z,1.40
2018-03-17T05:34:50.458Z,1.30
2018-03-17T05:37:18.100Z,1.40
2018-03-17T05:39:45.660Z,1.40
2018-03-17T05:42:13.279Z,1.50
2018-03-17T05:44:47.543Z,1.50
2018-03-17T05:47:15.227Z,1.50
2018-03-17T05:49:42.820Z,1.50
2018-03-17T05:52:36.495Z,1.60
2018-03-17T05:55:04.834Z,1.70
2018-03-17T05:57:49.148Z,1.70
2018-03-17T06:00:16.711Z,1.70
2018-03-17T06:02:44.358Z,1.80
2018-03-17T06:05:12.915Z,1.80
2018-03-17T06:07:41.259Z,1.90
2018-03-17T06:10:09.507Z,1.90
2018-03-17T06:12:37.155Z,2.00
2018-03-17T06:15:05.705Z,2.00
2018-03-17T06:17:33.319Z,2.10
2018-03-17T06:20:00.942Z,2.10
2018-03-17T06:22:29.309Z,2.10
2018-03-17T06:25:07.235Z,2.10
2018-03-17T06:30:33.507Z,2.20
2018-03-17T06:33:01.081Z,2.30
2018-03-17T06:35:28.684Z,2.30
2018-03-17T06:37:57.269Z,2.40
2018-03-17T06:40:51.448Z,2.50
2018-03-17T06:43:19.783Z,2.50
2018-03-17T06:45:47.399Z,2.50
2018-03-17T06:48:16.724Z,2.50
2018-03-17T06:50:44.326Z,2.50
2018-03-17T06:53:11.932Z,2.50
2018-03-17T06:58:42.524Z,2.70
2018-03-17T07:01:10.698Z,2.70
2018-03-17T07:03:38.292Z,2.70
2018-03-17T07:06:06.640Z,2.70
2018-03-17T07:08:53.115Z,2.70
2018-03-17T07:11:21.485Z,2.80
2018-03-17T07:13:49.101Z,2.80
2018-03-17T07:16:16.684Z,2.80
2018-03-17T07:18:45.070Z,3.00
2018-03-17T07:21:12.651Z,2.90
2018-03-17T07:23:40.283Z,2.90
2018-03-17T07:26:08.631Z,2.90
2018-03-17T07:28:36.863Z,2.90
2018-03-17T07:31:04.449Z,3.00
2018-03-17T07:33:32.027Z,3.00
2018-03-17T07:35:59.636Z,3.00
2018-03-17T07:38:27.251Z,3.10
2018-03-17T07:41:18.158Z,3.10
2018-03-17T07:43:46.745Z,3.00
2018-03-17T07:46:14.387Z,3.10
2018-03-17T07:48:41.961Z,3.10
2018-03-17T07:51:09.597Z,3.10
2018-03-17T07:53:37.181Z,3.20
2018-03-17T07:56:06.827Z,3.20
2018-03-17T07:58:34.427Z,3.30
2018-03-17T08:01:02.074Z,3.40
2018-03-17T08:03:29.700Z,3.30
2018-03-17T08:09:11.589Z,3.30
2018-03-17T08:11:39.228Z,3.30
2018-03-17T08:14:06.834Z,3.30
2018-03-17T08:16:35.196Z,3.30
2018-03-17T08:19:03.555Z,3.30
2018-03-17T08:21:31.188Z,3.30
2018-03-17T08:23:58.799Z,3.40
2018-03-17T08:26:26.374Z,3.50
2018-03-17T08:28:54.000Z,3.50
2018-03-17T08:31:21.628Z,3.40
2018-03-17T08:33:49.263Z,3.30
2018-03-17T08:36:16.910Z,3.30
2018-03-17T08:38:45.327Z,3.20
2018-03-17T08:41:12.938Z,3.20
2018-03-17T08:43:40.542Z,3.20
2018-03-17T08:46:08.887Z,3.30
2018-03-17T08:48:37.242Z,3.40
2018-03-17T08:51:04.829Z,3.40
2018-03-17T08:53:32.419Z,3.30
2018-03-17T08:56:00.024Z,3.40
2018-03-17T08:58:27.654Z,3.40
2018-03-17T09:00:55.270Z,3.40
2018-03-17T09:03:23.607Z,3.30
2018-03-17T09:05:51.288Z,3.30
2018-03-17T09:08:18.864Z,3.30
2018-03-17T09:10:46.501Z,3.30
2018-03-17T09:13:14.096Z,3.20
2018-03-17T09:15:41.736Z,3.20
2018-03-17T09:18:09.352Z,3.10
2018-03-17T09:20:36.957Z,3.10
2018-03-17T09:23:04.549Z,3.20
2018-03-17T09:25:32.155Z,3.20
2018-03-17T09:27:59.734Z,3.20
2018-03-17T09:30:28.124Z,3.30
2018-03-17T09:32:56.487Z,3.40
2018-03-17T09:35:24.853Z,3.50
2018-03-17T09:37:52.458Z,3.50
2018-03-17T09:40:20.091Z,3.50
2018-03-17T09:42:47.702Z,3.50
2018-03-17T09:45:15.298Z,3.30
2018-03-17T09:47:42.961Z,3.40
2018-03-17T09:50:10.517Z,3.30
2018-03-17T09:52:38.149Z,3.40
2018-03-17T09:55:05.762Z,3.40
2018-03-17T09:57:34.137Z,3.50
2018-03-17T10:00:02.568Z,3.50
2018-03-17T10:02:30.202Z,3.50
2018-03-17T10:04:57.838Z,3.60
2018-03-17T10:07:26.204Z,3.60
2018-03-17T10:09:53.768Z,3.60
2018-03-17T10:12:21.397Z,3.60
2018-03-17T10:14:48.993Z,3.60
2018-03-17T10:17:16.560Z,3.60
2018-03-17T10:20:03.894Z,3.50
2018-03-17T10:22:31.538Z,3.50
2018-03-17T10:25:07.148Z,3.50
2018-03-17T10:27:34.787Z,3.50
2018-03-17T10:30:02.375Z,3.60
2018-03-17T10:32:29.989Z,3.60
2018-03-17T10:34:57.614Z,3.70
2018-03-17T10:37:25.211Z,3.70
2018-03-17T10:39:53.597Z,3.90
2018-03-17T10:42:22.119Z,3.90
2018-03-17T10:44:49.708Z,3.80
2018-03-17T10:47:31.758Z,3.80
2018-03-17T10:49:59.402Z,3.80
2018-03-17T10:52:27.051Z,3.80
2018-03-17T10:54:55.419Z,3.60
2018-03-17T10:57:23.798Z,3.60
2018-03-17T10:59:52.167Z,3.40
2018-03-17T11:02:21.634Z,3.30
2018-03-17T11:04:49.190Z,3.30
2018-03-17T11:07:16.816Z,3.30
2018-03-17T11:09:44.470Z,3.30
2018-03-17T11:12:12.105Z,3.50
2018-03-17T11:14:40.507Z,3.70
2018-03-17T11:17:08.876Z,3.80
2018-03-17T11:19:37.824Z,3.90
2018-03-17T11:22:05.402Z,3.90
2018-03-17T11:24:33.995Z,4.00
2018-03-17T11:30:07.676Z,4.00
2018-03-17T11:38:25.237Z,4.20
2018-03-17T11:40:52.855Z,4.20
2018-03-17T11:43:21.231Z,3.90
2018-03-17T11:45:48.855Z,3.90
2018-03-17T11:48:16.423Z,3.80
2018-03-17T11:50:44.075Z,3.60
2018-03-17T11:53:12.386Z,3.50
2018-03-17T11:58:33.768Z,3.40
2018-03-17T12:01:01.389Z,3.40
2018-03-17T12:03:29.829Z,3.40
2018-03-17T12:05:57.469Z,3.40
2018-03-17T12:08:25.100Z,3.40
2018-03-17T12:10:53.518Z,3.40
2018-03-17T12:13:21.940Z,3.40
2018-03-17T12:15:49.536Z,3.40
2018-03-17T12:18:17.088Z,3.40
2018-03-17T12:20:44.760Z,3.40
2018-03-17T12:23:12.358Z,3.30
2018-03-17T12:25:39.951Z,3.10
2018-03-17T12:28:08.332Z,2.90
2018-03-17T12:30:36.671Z,2.90
2018-03-17T12:33:04.840Z,2.90
2018-03-17T12:35:32.470Z,2.80
2018-03-17T12:38:00.159Z,2.90
2018-03-17T12:40:27.752Z,2.90
2018-03-17T12:42:56.155Z,2.70
2018-03-17T12:45:24.082Z,2.70
2018-03-17T12:47:51.691Z,2.70
2018-03-17T12:50:19.312Z,2.70
2018-03-17T12:52:46.924Z,2.70
2018-03-17T12:55:14.544Z,2.70
2018-03-17T12:57:42.161Z,2.70
2018-03-17T13:00:09.762Z,2.80
2018-03-17T13:02:37.361Z,2.90
2018-03-17T13:05:04.968Z,3.00
2018-03-17T13:07:32.571Z,2.90
2018-03-17T13:10:00.154Z,2.80
2018-03-17T13:12:27.751Z,2.70
2018-03-17T13:14:56.577Z,2.70
2018-03-17T13:17:24.972Z,2.90
2018-03-17T13:19:52.573Z,2.90
2018-03-17T13:22:37.859Z,2.90
2018-03-17T13:25:05.475Z,3.00
2018-03-17T13:27:44.758Z,3.00
2018-03-17T13:30:12.358Z,3.10
2018-03-17T13:32:51.717Z,3.10
2018-03-17T13:35:19.331Z,3.00
2018-03-17T13:37:53.356Z,3.20
2018-03-17T13:40:30.078Z,3.40
2018-03-17T13:42:57.666Z,3.40
2018-03-17T13:45:25.290Z,3.40
2018-03-17T13:47:52.922Z,3.30
2018-03-17T13:50:20.503Z,3.30
2018-03-17T13:52:48.107Z,3.10
2018-03-17T13:55:15.700Z,3.00
2018-03-17T13:57:43.275Z,3.00
2018-03-17T14:00:10.912Z,2.90
2018-03-17T14:02:39.307Z,2.70
2018-03-17T14:05:21.421Z,2.70
2018-03-17T14:07:49.056Z,2.70
2018-03-17T14:10:16.694Z,2.60
2018-03-17T14:12:45.280Z,2.60
2018-03-17T14:15:12.894Z,2.50
2018-03-17T14:17:45.465Z,2.50
2018-03-17T14:20:16.440Z,2.50
2018-03-17T14:22:44.040Z,2.50
2018-03-17T14:25:11.666Z,2.40
2018-03-17T14:27:39.329Z,2.30
2018-03-17T14:30:06.982Z,2.30
2018-03-17T14:32:34.663Z,2.30
2018-03-17T14:35:02.288Z,2.30
2018-03-17T14:37:29.874Z,2.20
2018-03-17T14:39:57.517Z,2.20
2018-03-17T14:42:25.138Z,2.20
2018-03-17T14:44:52.762Z,2.20
2018-03-17T14:47:20.392Z,2.20
2018-03-17T14:49:48.016Z,2.10
2018-03-17T14:52:16.405Z,2.10
2018-03-17T14:54:43.995Z,2.00
2018-03-17T14:57:11.589Z,2.00
2018-03-17T14:59:39.974Z,2.00
2018-03-17T15:02:08.334Z,1.90
2018-03-17T15:04:35.930Z,1.90
2018-03-17T15:07:03.555Z,2.00
2018-03-17T15:09:31.180Z,2.00
2018-03-17T15:11:58.746Z,2.00
2018-03-17T15:14:26.324Z,2.10
2018-03-17T15:16:53.925Z,2.10
2018-03-17T15:19:21.508Z,2.10
2018-03-17T15:21:49.137Z,2.10
2018-03-17T15:24:17.554Z,2.10
2018-03-17T15:26:45.839Z,2.10
2018-03-17T15:29:13.424Z,2.00
2018-03-17T15:31:41.032Z,2.00
2018-03-17T15:34:08.644Z,2.00
2018-03-17T15:36:36.303Z,1.90
2018-03-17T15:39:03.912Z,1.90
2018-03-17T15:41:31.509Z,1.90
2018-03-17T15:43:59.116Z,1.90
2018-03-17T15:46:27.494Z,1.90
2018-03-17T15:48:55.846Z,1.90
2018-03-17T15:51:23.468Z,1.90
2018-03-17T15:53:52.014Z,1.80
2018-03-17T15:56:20.423Z,1.80
2018-03-17T15:58:48.045Z,1.80
2018-03-17T16:01:16.431Z,1.90
2018-03-17T16:03:44.819Z,1.90
2018-03-17T16:06:12.437Z,1.90
2018-03-17T16:08:40.055Z,1.80
2018-03-17T16:11:07.623Z,1.80
2018-03-17T16:13:35.242Z,1.70
2018-03-17T16:16:06.114Z,1.70
2018-03-17T16:18:34.633Z,1.70
2018-03-17T16:21:02.297Z,1.70
2018-03-17T16:23:29.903Z,1.70
2018-03-17T16:26:01.923Z,1.70
2018-03-17T16:28:29.524Z,1.70
2018-03-17T16:30:58.433Z,1.70
2018-03-17T16:33:26.210Z,1.70
2018-03-17T16:36:13.292Z,1.70
2018-03-17T16:38:41.695Z,1.80
2018-03-17T16:41:09.326Z,1.70
2018-03-17T16:43:37.744Z,1.70
2018-03-17T16:46:13.523Z,1.70
2018-03-17T16:48:41.123Z,1.60
2018-03-17T16:51:09.556Z,1.60
2018-03-17T16:53:37.141Z,1.50
2018-03-17T16:56:04.727Z,1.50
2018-03-17T16:58:32.368Z,1.50
2018-03-17T17:00:59.953Z,1.50
2018-03-17T17:03:27.649Z,1.40
2018-03-17T17:05:55.229Z,1.40
2018-03-17T17:08:22.904Z,1.50
2018-03-17T17:10:51.516Z,1.40
2018-03-17T17:13:19.099Z,1.40
2018-03-17T17:15:46.734Z,1.40
2018-03-17T17:18:14.331Z,1.40
2018-03-17T17:20:41.960Z,1.40
2018-03-17T17:23:13.981Z,1.40
2018-03-17T17:25:41.600Z,1.30
2018-03-17T17:28:09.208Z,1.30
2018-03-17T17:30:36.831Z,1.30
2018-03-17T17:33:14.857Z,1.30
2018-03-17T17:35:46.053Z,1.30
2018-03-17T17:38:14.492Z,1.20
2018-03-17T17:40:42.136Z,1.20
2018-03-17T17:43:09.794Z,1.20
2018-03-17T17:45:38.242Z,1.20
2018-03-17T17:48:05.849Z,1.20
2018-03-17T17:50:40.928Z,1.10
2018-03-17T17:53:08.558Z,1.10
2018-03-17T17:55:36.156Z,1.10
2018-03-17T17:58:04.571Z,1.00
2018-03-17T18:00:32.176Z,1.00
2018-03-17T18:02:59.774Z,1.00
2018-03-17T18:05:27.341Z,0.90
2018-03-17T18:07:54.952Z,0.90
2018-03-17T18:10:22.562Z,0.90
2018-03-17T18:12:50.159Z,0.90
2018-03-17T18:15:17.773Z,0.90
2018-03-17T18:17:45.376Z,0.90
2018-03-17T18:20:13.009Z,0.80
2018-03-17T18:22:40.666Z,0.80
2018-03-17T18:25:08.262Z,0.80
2018-03-17T18:27:35.815Z,0.70
2018-03-17T18:30:03.405Z,0.70
2018-03-17T18:32:31.784Z,0.60
2018-03-17T18:35:00.190Z,0.70
2018-03-17T18:37:28.789Z,0.70
2018-03-17T18:39:56.392Z,0.70
2018-03-17T18:42:24.004Z,0.60
2018-03-17T18:44:51.632Z,0.60
2018-03-17T18:47:19.976Z,0.50
2018-03-17T18:49:47.575Z,0.50
2018-03-17T18:52:28.470Z,0.50
2018-03-17T18:54:56.116Z,0.50
2018-03-17T18:57:23.772Z,0.50
2018-03-17T18:59:51.398Z,0.50
2018-03-17T19:02:19.993Z,0.50
2018-03-17T19:04:54.386Z,0.50
2018-03-17T19:07:22.026Z,0.50
2018-03-17T19:09:49.685Z,0.50
2018-03-17T19:12:20.672Z,0.40
2018-03-17T19:14:48.280Z,0.40
2018-03-17T19:17:15.928Z,0.40
2018-03-17T19:19:44.137Z,0.40
2018-03-17T19:22:11.722Z,0.30
2018-03-17T19:24:39.347Z,0.30
2018-03-17T19:27:06.975Z,0.20
2018-03-17T19:29:35.477Z,0.20
2018-03-17T19:32:03.093Z,0.20
2018-03-17T19:34:30.708Z,0.10
2018-03-17T19:36:58.339Z,0.10
2018-03-17T19:39:25.898Z,0.10
2018-03-17T19:41:54.249Z,0.00
2018-03-17T19:44:22.712Z,-0.10
2018-03-17T19:46:50.340Z,-0.10
2018-03-17T19:49:17.935Z,-0.10
2018-03-17T19:51:45.579Z,-0.20
2018-03-17T19:54:13.239Z,-0.30
2018-03-17T19:56:40.816Z,-0.30
2018-03-17T19:59:08.438Z,-0.30
2018-03-17T20:01:36.115Z,-0.40
2018-03-17T20:04:03.759Z,-0.40
2018-03-17T20:06:31.418Z,-0.40
2018-03-17T20:08:59.089Z,-0.50
2018-03-17T20:11:26.724Z,-0.50
2018-03-17T20:13:55.179Z,-0.50
2018-03-17T20:16:22.791Z,-0.60
2018-03-17T20:18:50.460Z,-0.60
2018-03-17T20:21:18.029Z,-0.60
2018-03-17T20:23:45.683Z,-0.70
2018-03-17T20:26:13.331Z,-0.70
2018-03-17T20:28:40.918Z,-0.70
2018-03-17T20:31:08.561Z,-0.70
2018-03-17T20:33:36.202Z,-0.80
2018-03-17T20:36:03.801Z,-0.70
2018-03-17T20:38:31.436Z,-0.70
2018-03-17T20:40:59.014Z,-0.70
2018-03-17T20:43:26.670Z,-0.70
2018-03-17T20:45:54.283Z,-0.80
2018-03-17T20:48:22.713Z,-0.80
2018-03-17T20:50:50.312Z,-0.90
2018-03-17T20:53:17.952Z,-0.90
2018-03-17T20:55:45.570Z,-0.90
2018-03-17T20:58:13.187Z,-1.00
2018-03-17T21:00:40.821Z,-1.00
2018-03-17T21:03:08.447Z,-1.00
2018-03-17T21:05:36.067Z,-1.00
2018-03-17T21:08:03.680Z,-1.00
2018-03-17T21:10:31.335Z,-1.10
2018-03-17T21:12:58.931Z,-1.10
2018-03-17T21:15:26.628Z,-1.10
2018-03-17T21:17:54.255Z,-1.10
2018-03-17T21:20:21.936Z,-1.20
2018-03-17T21:22:49.572Z,-1.20
2018-03-17T21:25:17.184Z,-1.20
2018-03-17T21:27:44.859Z,-1.30
2018-03-17T21:30:12.480Z,-1.30
2018-03-17T21:32:40.094Z,-1.30
2018-03-17T21:35:07.784Z,-1.40
2018-03-17T21:37:35.339Z,-1.40
2018-03-17T21:40:02.970Z,-1.50
2018-03-17T21:42:31.390Z,-1.60
2018-03-17T21:44:58.981Z,-1.70
2018-03-17T21:47:26.571Z,-1.60
2018-03-17T21:49:54.154Z,-1.60
2018-03-17T21:52:21.762Z,-1.60
2018-03-17T21:54:49.385Z,-1.60
2018-03-17T21:57:17.058Z,-1.70
2018-03-17T21:59:44.696Z,-1.70
2018-03-17T22:02:12.365Z,-1.70
2018-03-17T22:04:41.909Z,-1.70
2018-03-17T22:07:09.477Z,-1.70
2018-03-17T22:09:37.118Z,-1.70
2018-03-17T22:12:04.759Z,-1.70
2018-03-17T22:14:32.369Z,-1.60
2018-03-17T22:17:00.797Z,-1.70
2018-03-17T22:19:28.424Z,-1.70
2018-03-17T22:21:56.655Z,-1.70
2018-03-17T22:24:24.285Z,-1.80
2018-03-17T22:26:51.903Z,-1.80
2018-03-17T22:29:20.327Z,-1.80
2018-03-17T22:31:47.933Z,-1.80
2018-03-17T22:34:15.548Z,-1.80
2018-03-17T22:36:43.938Z,-1.80
2018-03-17T22:39:12.353Z,-1.80
2018-03-17T22:41:39.971Z,-1.80
2018-03-17T22:44:07.640Z,-1.80
2018-03-17T22:46:35.239Z,-1.80
2018-03-17T22:49:02.857Z,-1.80
2018-03-17T22:51:31.241Z,-1.90
2018-03-17T22:53:58.854Z,-1.90
2018-03-17T22:56:27.461Z,-1.90
2018-03-17T22:58:55.095Z,-1.90
2018-03-17T23:01:23.457Z,-1.90
2018-03-17T23:03:51.896Z,-1.90
2018-03-17T23:06:19.528Z,-1.90
2018-03-17T23:08:47.140Z,-1.90
2018-03-17T23:11:14.782Z,-1.90
2018-03-17T23:13:42.371Z,-1.90
2018-03-17T23:16:11.049Z,-1.90
2018-03-17T23:18:38.653Z,-2.00
2018-03-17T23:21:06.285Z,-2.00
2018-03-17T23:23:33.941Z,-2.00
2018-03-17T23:26:01.527Z,-2.00
2018-03-17T23:28:29.183Z,-2.10
2018-03-17T23:30:57.572Z,-2.00
2018-03-17T23:33:26.486Z,-2.00
2018-03-17T23:35:54.079Z,-2.00
2018-03-17T23:38:21.699Z,-2.10
2018-03-17T23:40:49.293Z,-2.10
2018-03-17T23:43:16.872Z,-2.10
2018-03-17T23:45:44.496Z,-2.20
2018-03-17T23:48:12.099Z,-2.20
2018-03-17T23:50:39.738Z,-2.20
2018-03-17T23:53:07.353Z,-2.10
2018-03-17T23:55:35.716Z,-2.20
2018-03-17T23:58:04.102Z,-2.20
